Latest Weather Observations for Rocky Gully South

IDW60801

Issued at 8:05 pm WST Wednesday 23 July 2014 (issued every 30 minutes, with the page automatically refreshed every 10 minutes)

About weather observations | Map of weather stations | Latest weather observations for WA | Other Formats
Station Details ID: 009964 Name: ROCKY GULLY Lat: -34.57 Lon: 117.01 Height: 250.0 m
Data from the previous 72 hours. | See also: Recent months at Rocky Gully South
Date/Time
WST
Temp
°C
App
Temp
°C
Dew
Point
Rel
Hum
%
Delta-T
°C
Wind Press
QNH
hPa
Press
MSL
hPa
Rain
since 9 am
mm
Dir
 
Spd
km/h
Gust
km/h
Spd
kts
Gust
kts
23/08:00pm 9.8 6.7 7.2 84 1.2 NNW 13 20 7 11 - - 0.6
23/07:30pm 10.0 7.3 7.3 83 1.3 NNW 11 19 6 10 - - 0.6
23/07:00pm 9.9 7.2 7.2 83 1.3 NNW 11 17 6 9 - - 0.6
23/06:30pm 10.3 7.9 7.2 81 1.5 NW 9 17 5 9 - - 0.6
23/06:00pm 10.8 7.8 7.5 80 1.6 NNW 13 17 7 9 - - 0.6
23/05:30pm 10.8 7.8 7.7 81 1.5 NNW 13 19 7 10 - - 0.6
23/05:00pm 10.9 8.6 7.6 80 1.6 NNW 9 15 5 8 - - 0.6
23/04:30pm 11.7 9.1 7.6 76 2.0 NW 11 17 6 9 - - 0.6
23/04:00pm 11.6 8.7 8.1 79 1.7 WNW 13 20 7 11 - - 0.6
23/03:30pm 11.5 8.8 7.4 76 2.0 WNW 11 20 6 11 - - 0.6
23/03:00pm 11.4 8.9 8.1 80 1.6 W 11 26 6 14 - - 0.6
23/02:30pm 11.7 8.1 6.8 72 2.4 W 15 26 8 14 - - 0.2
23/02:00pm 13.7 10.3 7.7 67 3.0 WNW 15 26 8 14 - - 0.0
23/01:30pm 12.1 8.6 7.0 71 2.5 WNW 15 26 8 14 - - 0.0
23/01:00pm 12.2 9.3 6.7 69 2.7 W 11 20 6 11 - - 0.0
23/12:30pm 11.5 8.3 6.8 73 2.3 NW 13 28 7 15 - - 0.0
23/12:00pm 11.6 8.0 6.9 73 2.3 NW 15 22 8 12 - - 0.0
23/11:30am 10.5 7.9 7.6 82 1.4 WNW 11 17 6 9 - - 0.0
23/11:00am 9.8 6.9 6.7 81 1.5 NW 11 17 6 9 - - 0.0
23/10:30am 9.7 6.9 6.8 82 1.4 WNW 11 20 6 11 - - 0.0
23/10:00am 9.5 6.7 6.9 84 1.2 WNW 11 20 6 11 - - 0.0
23/09:30am 8.2 4.9 6.2 87 0.9 NW 13 24 7 13 - - 0.0
23/09:00am 8.0 5.5 6.5 90 0.7 NW 9 17 5 9 - - 14.0
23/08:30am 6.7 4.4 5.8 94 0.4 N 7 9 4 5 - - 14.0
23/08:00am 5.1 2.7 4.2 94 0.4 N 6 7 3 4 - - 14.0
23/07:30am 5.3 2.7 4.4 94 0.4 NW 7 9 4 5 - - 14.0
23/07:00am 5.5 3.0 4.6 94 0.4 NW 7 11 4 6 - - 14.0
23/06:30am 5.7 3.2 4.8 94 0.4 NW 7 11 4 6 - - 14.0
23/06:00am 6.1 3.7 5.2 94 0.4 NW 7 11 4 6 - - 14.0
23/05:30am 6.6 4.3 5.7 94 0.4 NW 7 11 4 6 - - 14.0
23/05:00am 7.0 4.8 6.1 94 0.4 NW 7 11 4 6 - - 14.0
23/04:30am 7.5 5.4 6.6 94 0.4 WNW 7 9 4 5 - - 14.0
23/04:00am 8.0 6.0 7.1 94 0.4 W 7 15 4 8 - - 14.0
23/03:30am 8.5 6.2 7.6 94 0.4 W 9 15 5 8 - - 14.0
23/03:00am 8.8 6.6 7.9 94 0.4 WSW 9 15 5 8 - - 13.8
23/02:30am 8.9 6.7 8.0 94 0.4 WSW 9 15 5 8 - - 13.6
23/02:00am 8.9 6.7 8.0 94 0.4 WSW 9 15 5 8 - - 13.4
23/01:30am 9.0 7.2 8.1 94 0.4 WSW 7 11 4 6 - - 12.8
23/01:00am 8.9 7.1 8.0 94 0.4 WSW 7 11 4 6 - - 12.8
23/12:30am 9.0 6.5 8.1 94 0.4 WSW 11 17 6 9 - - 12.8
23/12:00am 9.1 6.6 8.2 94 0.4 WSW 11 19 6 10 - - 12.6
 
Date/Time
WST
Temp
°C
App
Temp
°C
Dew
Point
Rel
Hum
%
Delta-T
°C
Wind Press
QNH
hPa
Press
MSL
hPa
Rain
since 9 am
mm
Dir
 
Spd
km/h
Gust
km/h
Spd
kts
Gust
kts
22/11:30pm 9.2 7.1 8.3 94 0.4 WSW 9 15 5 8 - - 12.6
22/11:00pm 9.2 6.3 8.3 94 0.4 WSW 13 22 7 12 - - 12.6
22/10:30pm 9.3 7.2 8.4 94 0.4 WSW 9 17 5 9 - - 11.2
22/10:00pm 9.4 7.3 8.3 93 0.5 W 9 17 5 9 - - 10.8
22/09:30pm 9.5 7.0 8.4 93 0.5 WSW 11 20 6 11 - - 10.6
22/09:00pm 9.6 7.6 8.5 93 0.5 WSW 9 15 5 8 - - 10.4
22/08:30pm 9.6 7.6 8.5 93 0.5 W 9 15 5 8 - - 10.4
22/08:00pm 9.8 8.2 8.7 93 0.5 W 7 17 4 9 - - 10.2
22/07:30pm 9.7 7.7 8.6 93 0.5 SW 9 15 5 8 - - 8.8
22/07:00pm 9.6 7.6 8.5 93 0.5 SW 9 13 5 7 - - 6.0
22/06:30pm 9.5 7.0 8.3 92 0.6 WSW 11 17 6 9 - - 4.2
22/06:00pm 9.5 7.0 8.1 91 0.7 W 11 17 6 9 - - 4.2
22/05:30pm 9.4 7.6 7.8 90 0.8 WSW 7 13 4 7 - - 3.8
22/05:00pm 9.7 7.5 7.8 88 0.9 WSW 9 15 5 8 - - 3.6
22/04:30pm 10.4 8.0 8.8 90 0.8 SW 11 20 6 11 - - 3.6
22/04:00pm 10.4 8.1 9.0 91 0.7 SW 11 15 6 8 - - 3.2
22/03:30pm 10.2 8.2 8.6 90 0.8 WSW 9 15 5 8 - - 3.0
22/03:00pm 10.2 8.2 8.8 91 0.7 WSW 9 11 5 6 - - 2.6
22/02:30pm 10.0 8.5 8.4 90 0.8 S 6 9 3 5 - - 2.0
22/02:00pm 9.7 8.0 8.3 91 0.7 NW 7 13 4 7 - - 1.4
22/01:30pm 10.0 7.5 8.4 90 0.8 WNW 11 19 6 10 - - 0.6
22/01:00pm 9.7 6.8 8.0 89 0.8 WNW 13 19 7 10 - - 0.4
22/12:30pm 9.9 7.2 7.5 85 1.2 W 11 20 6 11 - - 0.2
22/12:00pm 10.0 6.9 7.4 84 1.3 WNW 13 19 7 10 - - 0.2
22/11:30am 10.0 6.0 6.5 79 1.7 WNW 17 28 9 15 - - 0.2
22/11:00am 10.6 6.7 7.1 79 1.7 W 17 26 9 14 - - 0.2
22/10:30am 10.5 6.7 7.4 81 1.5 W 17 26 9 14 - - 0.2
22/10:00am 10.3 6.7 6.6 78 1.8 WNW 15 28 8 15 - - 0.2
22/09:30am 9.9 7.2 7.2 83 1.3 WNW 11 22 6 12 - - 0.0
22/09:00am 8.7 5.5 7.0 89 0.8 WNW 13 20 7 11 - - 8.8
22/08:30am 8.0 4.8 6.9 93 0.5 NW 13 22 7 12 - - 8.8
22/08:00am 7.7 4.4 6.6 93 0.5 WNW 13 26 7 14 - - 8.8
22/07:30am 7.6 4.7 6.7 94 0.4 NW 11 17 6 9 - - 8.8
22/07:00am 7.7 5.2 6.6 93 0.5 NNW 9 17 5 9 - - 8.8
22/06:30am 7.7 5.2 6.6 93 0.5 NW 9 13 5 7 - - 8.8
22/06:00am 8.0 5.6 6.9 93 0.5 NW 9 15 5 8 - - 8.8
22/05:30am 8.1 5.3 7.0 93 0.5 NW 11 15 6 8 - - 8.8
22/05:00am 8.1 5.3 7.0 93 0.5 NW 11 20 6 11 - - 8.8
22/04:30am 8.1 6.1 7.0 93 0.5 NNW 7 11 4 6 - - 8.8
22/04:00am 8.2 6.4 7.1 93 0.5 NNW 6 9 3 5 - - 8.8
22/03:30am 8.4 6.1 7.3 93 0.5 NNW 9 15 5 8 - - 8.6
22/03:00am 8.5 6.6 7.4 93 0.5 NNW 7 9 4 5 - - 8.4
22/02:30am 8.6 6.9 7.5 93 0.5 NNW 6 7 3 4 - - 7.8
22/02:00am 8.7 6.8 7.5 92 0.6 NW 7 13 4 7 - - 7.2
22/01:30am 8.8 6.6 7.7 93 0.5 NW 9 13 5 7 - - 7.0
22/01:00am 8.9 6.7 7.7 92 0.6 NW 9 13 5 7 - - 6.6
22/12:30am 9.0 6.8 7.8 92 0.6 NW 9 11 5 6 - - 6.4
22/12:00am 9.3 6.8 8.1 92 0.6 WNW 11 17 6 9 - - 5.4
 
Date/Time
WST
Temp
°C
App
Temp
°C
Dew
Point
Rel
Hum
%
Delta-T
°C
Wind Press
QNH
hPa
Press
MSL
hPa
Rain
since 9 am
mm
Dir
 
Spd
km/h
Gust
km/h
Spd
kts
Gust
kts
21/11:30pm 9.5 7.0 8.3 92 0.6 NW 11 17 6 9 - - 5.0
21/11:00pm 9.7 7.6 8.3 91 0.7 NNW 9 13 5 7 - - 4.4
21/10:30pm 10.0 7.6 8.6 91 0.7 NNW 11 17 6 9 - - 3.2
21/10:00pm 10.3 8.4 9.1 92 0.6 NNW 9 17 5 9 - - 3.2
21/09:30pm 10.6 8.7 9.2 91 0.7 NNW 9 15 5 8 - - 3.2
21/09:00pm 10.9 9.1 9.5 91 0.7 N 9 15 5 8 - - 2.8
21/08:30pm 11.1 9.7 9.4 89 0.9 WNW 7 15 4 8 - - 1.6
21/08:00pm 11.3 9.5 9.4 88 1.0 N 9 13 5 7 - - 0.2
21/07:30pm 11.3 9.0 9.0 86 1.2 N 11 17 6 9 - - 0.2
21/07:00pm 11.8 9.2 9.4 85 1.2 N 13 20 7 11 - - 0.2
21/06:30pm 12.1 9.5 9.5 84 1.3 N 13 22 7 12 - - 0.2
21/06:00pm 12.7 9.6 9.0 78 1.9 N 15 28 8 15 - - 0.2
21/05:30pm 12.9 10.1 8.6 75 2.2 N 13 26 7 14 - - 0.2
21/05:00pm 13.3 10.8 8.2 71 2.6 N 11 15 6 8 - - 0.2
21/04:30pm 14.0 10.8 8.4 69 2.8 N 15 26 8 14 - - 0.2
21/04:00pm 14.3 11.1 8.3 67 3.0 N 15 22 8 12 - - 0.2
21/03:30pm 15.0 11.4 8.5 65 3.3 N 17 32 9 17 - - 0.2
21/03:00pm 14.7 10.7 8.9 68 3.0 NNW 20 33 11 18 - - 0.2
21/02:30pm 14.7 10.6 8.6 67 3.1 NNW 20 33 11 18 - - 0.2
21/02:00pm 14.2 10.0 8.2 67 3.0 NNW 20 32 11 17 - - 0.2
21/01:30pm 14.6 10.6 8.3 66 3.2 NNW 19 32 10 17 - - 0.2
21/01:00pm 13.5 10.2 8.1 70 2.7 NNW 15 28 8 15 - - 0.2
21/12:30pm 14.5 10.9 8.5 67 3.1 N 17 24 9 13 - - 0.2
21/12:00pm 14.7 11.4 8.2 65 3.3 N 15 26 8 14 - - 0.2
21/11:30am 13.9 10.7 8.3 69 2.8 N 15 28 8 15 - - 0.2
21/11:00am 13.2 10.1 8.7 74 2.3 N 15 24 8 13 - - 0.2
21/10:30am 12.5 9.8 9.1 80 1.7 N 13 20 7 11 - - 0.2
21/10:00am 11.3 8.7 9.2 87 1.1 N 13 20 7 11 - - 0.0
21/09:30am 10.5 8.3 9.4 93 0.6 N 11 17 6 9 - - 0.0
21/09:00am 9.6 7.2 8.8 95 0.4 NNW 11 15 6 8 - - 0.6
21/08:30am 9.0 6.1 8.2 95 0.4 N 13 17 7 9 - - 0.6
21/08:00am 8.9 6.8 8.1 95 0.4 N 9 15 5 8 - - 0.6
21/07:30am 8.8 5.9 8.0 95 0.4 N 13 22 7 12 - - 0.6
21/07:00am 8.7 6.5 7.8 94 0.4 N 9 13 5 7 - - 0.6
21/06:30am 8.8 7.0 7.9 94 0.4 N 7 9 4 5 - - 0.6
21/06:00am 8.9 7.3 8.0 94 0.4 NNW 6 7 3 4 - - 0.6
21/05:30am 9.5 8.0 8.6 94 0.4 NNW 6 11 3 6 - - 0.6
21/05:00am 9.8 7.9 8.9 94 0.4 NNW 9 11 5 6 - - 0.6
21/04:30am 9.8 9.2 8.9 94 0.4 WNW 2 7 1 4 - - 0.6
21/04:00am 10.2 8.9 9.3 94 0.5 NW 6 11 3 6 - - 0.6
21/03:30am 10.2 8.9 9.3 94 0.5 WNW 6 9 3 5 - - 0.6
21/03:00am 10.3 8.9 9.4 94 0.5 WNW 7 11 4 6 - - 0.6
21/02:30am 10.3 9.1 9.4 94 0.5 WNW 6 7 3 4 - - 0.4
21/02:00am 10.3 9.1 9.4 94 0.5 WNW 6 9 3 5 - - 0.4
21/01:30am 10.2 8.9 9.3 94 0.5 WNW 6 9 3 5 - - 0.4
21/01:00am 10.1 9.2 9.2 94 0.5 NW 4 9 2 5 - - 0.4
21/12:30am 9.5 8.0 8.6 94 0.4 NNW 6 7 3 4 - - 0.4
21/12:00am 9.4 7.9 8.5 94 0.4 N 6 9 3 5 - - 0.4
 
Date/Time
WST
Temp
°C
App
Temp
°C
Dew
Point
Rel
Hum
%
Delta-T
°C
Wind Press
QNH
hPa
Press
MSL
hPa
Rain
since 9 am
mm
Dir
 
Spd
km/h
Gust
km/h
Spd
kts
Gust
kts
20/11:30pm 8.7 7.0 7.6 93 0.5 N 6 7 3 4 - - 0.4
20/11:00pm 8.7 7.1 7.8 94 0.4 NW 6 7 3 4 - - 0.4
20/10:30pm 8.5 6.8 7.4 93 0.5 NW 6 7 3 4 - - 0.4
20/10:00pm 8.7 7.0 7.6 93 0.5 N 6 7 3 4 - - 0.2
20/09:30pm 8.2 6.2 7.1 93 0.5 NNW 7 7 4 4 - - 0.2
20/09:00pm 7.9 7.1 6.7 92 0.6 CALM 0 0 0 0 - - 0.2
20/08:30pm 9.0 8.5 7.8 92 0.6 CALM 0 0 0 0 - - 0.2

Other Formats:

Comma delimited format used in spreadsheet applications
http://www.bom.gov.au/fwo/IDW60801/IDW60801.94631.axf

JavaScript Object Notation format (JSON) in row-major order
http://www.bom.gov.au/fwo/IDW60801/IDW60801.94631.json